Terminal Aerodrome Forecast
Issued by NWS

Home | Current Version | Previous Version | Text Only | Print | Product List | Glossary On
Versions: 1 2 3 4 5 6 7 8 9 10 11 12 13 14 15 16 17
100
FTUS43 KMQT 281125
TAFSAW
TAF
KSAW 281125Z 2812/2912 20008KT P6SM SCT200
     FM281600 17011G19KT P6SM VCSH SCT045 OVC130
     FM281800 16012G21KT 6SM -SHRA SCT025 OVC035
     FM282000 15010G15KT 6SM -SHRA SCT008 OVC015
     FM282200 14013KT 6SM -SHRA SCT003 BKN008 OVC015
     FM290000 16010KT 6SM -SHRA OVC008
     FM290300 16009KT 4SM -SHRA OVC003
     FM290600 VRB04KT 1 1/2SM BR OVC003=

USA.gov is the U.S. government's official web portal to all federal, state and local government web resources and services.